Impacts METAR Board
IDs:

KMEM - Memphis Intl, TN, US

Updated at: 2000 UTC 02 Oct 2022
Potential Impact None Slight Moderate High
Time 02/08Z 02/09Z 02/10Z 02/11Z 02/12Z 02/13Z 02/14Z 02/15Z 02/16Z 02/17Z 02/18Z 02/19Z 02/20Z
Temp59 57 58 57 56 58 62 68 72 75 77 79 80
Dewpt43 43 43 44 44 45 45 45 43 43 44 45 46
Altim30.09 30.10 30.11 30.13 30.15 30.17 30.19 30.20 30.21 30.19 30.18 30.16 30.14
VIS10 10 10 10 10 10 10 10 10 10 10 10 10
CIG-- -- -- -- -- -- -- -- -- -- -- -- --
CoverCLRCLRCLRCLRCLRCLRCLRCLRCLRCLRCLRCLRCLR
FltCatVFRVFRVFRVFRVFRVFRVFRVFRVFRVFRVFRVFRVFR
WX--------------------------
WDir4030303020104004050203010
WSpd6 4 6 6 5 4 6 6 10 9 10 11 9
WGst-- -- -- -- -- -- -- -- -- -- -- -- --
Raw hourly METARs
KMEM 020754Z 04006KT 10SM CLR 15/06 A3009 RMK AO2 SLP187 T01500061
KMEM 020854Z 03004KT 10SM CLR 14/06 A3010 RMK AO2 SLP189 T01390061 51002
KMEM 020954Z 03006KT 10SM CLR 14/06 A3011 RMK AO2 SLP192 T01440061
KMEM 021054Z 03006KT 10SM CLR 14/07 A3013 RMK AO2 SLP201 T01390067
KMEM 021154Z 02005KT 10SM CLR 13/07 A3015 RMK AO2 SLP207 T01330067 10167 20128 53018
KMEM 021254Z 01004KT 10SM CLR 14/07 A3017 RMK AO2 SLP214 T01440072
KMEM 021354Z 04006KT 10SM CLR 17/07 A3019 RMK AO2 SLP221 T01670072
KMEM 021454Z VRB06KT 10SM CLR 20/07 A3020 RMK AO2 SLP224 T02000072 51017
KMEM 021554Z 04010KT 10SM CLR 22/06 A3021 RMK AO2 SLP226 T02220061
KMEM 021654Z 05009KT 10SM CLR 24/06 A3019 RMK AO2 SLP221 T02390061
KMEM 021754Z 02010KT 10SM CLR 25/07 A3018 RMK AO2 SLP217 T02500067 10256 20128 58006
KMEM 021854Z 03011KT 10SM CLR 26/07 A3016 RMK AO2 SLP209 T02610072
KMEM 021954Z 01009KT 10SM CLR 27/08 A3014 RMK AO2 SLP201 T02670078



Page loaded:  20:00 UTC  |   01:00 PM Pacific  |   02:00 PM Mountain  |   03:00 PM Central  |   04:00 PM Eastern

 

ADVISORIES

FORECASTS

FORECASTS

OBSERVATIONS

USER TOOLS

ABOUT US